createdAt,value
2019-03-09T00:00:20.099Z,64.00
2019-03-09T00:03:11.767Z,64.10
2019-03-09T00:05:54.374Z,64.00
2019-03-09T00:08:38.483Z,63.90
2019-03-09T00:11:21.199Z,64.40
2019-03-09T00:14:04.709Z,64.90
2019-03-09T00:16:48.477Z,65.40
2019-03-09T00:19:31.904Z,65.70
2019-03-09T00:22:27.490Z,65.00
2019-03-09T00:25:30.675Z,65.60
2019-03-09T00:28:27.956Z,66.30
2019-03-09T00:31:41.371Z,66.30
2019-03-09T00:34:37.020Z,65.90
2019-03-09T00:37:27.408Z,66.40
2019-03-09T00:40:11.008Z,65.90
2019-03-09T00:43:00.635Z,65.30
2019-03-09T00:45:43.552Z,65.20
2019-03-09T00:48:27.684Z,65.50
2019-03-09T00:51:10.618Z,64.70
2019-03-09T00:53:54.145Z,64.80
2019-03-09T00:56:44.530Z,64.70
2019-03-09T00:59:21.365Z,64.40
2019-03-09T01:02:11.413Z,64.50
2019-03-09T01:04:48.387Z,64.40
2019-03-09T01:07:37.704Z,64.40
2019-03-09T01:10:17.276Z,64.30
2019-03-09T01:13:06.583Z,64.30
2019-03-09T01:15:43.503Z,64.90
2019-03-09T01:18:34.189Z,65.00
2019-03-09T01:21:10.407Z,65.10
2019-03-09T01:23:59.919Z,65.50
2019-03-09T01:26:43.054Z,65.40
2019-03-09T01:29:33.455Z,65.50
2019-03-09T01:32:09.839Z,65.40
2019-03-09T01:34:59.669Z,65.30
2019-03-09T01:37:36.296Z,65.10
2019-03-09T01:40:30.489Z,64.90
2019-03-09T01:43:07.696Z,65.00
2019-03-09T01:45:56.843Z,65.40
2019-03-09T01:48:32.818Z,66.30
2019-03-09T01:51:22.624Z,68.00
2019-03-09T01:53:58.778Z,68.20
2019-03-09T01:56:49.161Z,67.10
2019-03-09T01:59:26.155Z,66.50
2019-03-09T02:02:16.206Z,67.10
2019-03-09T02:05:00.297Z,66.90
2019-03-09T02:07:43.287Z,66.70
2019-03-09T02:10:28.030Z,66.80
2019-03-09T02:13:17.099Z,66.70
2019-03-09T02:16:13.754Z,68.00
2019-03-09T02:19:03.149Z,67.40
2019-03-09T02:21:47.006Z,68.40
2019-03-09T02:24:42.094Z,68.50
2019-03-09T02:27:32.079Z,68.30
2019-03-09T02:30:09.015Z,67.70
2019-03-09T02:32:59.737Z,67.30
2019-03-09T02:35:36.775Z,66.90
2019-03-09T02:38:30.779Z,66.60
2019-03-09T02:41:07.178Z,67.20
2019-03-09T02:43:56.297Z,67.60
2019-03-09T02:46:39.472Z,68.40
2019-03-09T02:49:35.684Z,69.80
2019-03-09T02:52:24.882Z,70.20
2019-03-09T02:55:07.992Z,71.20
2019-03-09T02:57:51.427Z,71.30
2019-03-09T03:00:37.006Z,71.70
2019-03-09T03:03:20.245Z,73.10
2019-03-09T03:06:02.925Z,73.30
2019-03-09T03:08:46.681Z,72.90
2019-03-09T03:11:43.088Z,73.00
2019-03-09T03:14:33.414Z,72.20
2019-03-09T03:17:09.812Z,72.10
2019-03-09T03:20:00.139Z,72.40
2019-03-09T03:22:37.203Z,72.50
2019-03-09T03:25:26.765Z,72.30
2019-03-09T03:28:03.977Z,72.90
2019-03-09T03:30:53.243Z,73.20
2019-03-09T03:33:30.159Z,73.50
2019-03-09T03:36:20.971Z,73.20
2019-03-09T03:38:57.419Z,73.00
2019-03-09T03:41:47.709Z,72.90
2019-03-09T03:44:24.533Z,73.10
2019-03-09T03:47:15.540Z,73.50
2019-03-09T03:49:58.106Z,73.50
2019-03-09T03:52:42.112Z,74.70
2019-03-09T03:55:25.736Z,74.70
2019-03-09T03:58:01.936Z,73.80
2019-03-09T04:00:52.028Z,74.10
2019-03-09T04:03:28.888Z,73.90
2019-03-09T04:06:19.656Z,74.40
2019-03-09T04:08:56.336Z,75.00
2019-03-09T04:11:47.768Z,75.40
2019-03-09T04:14:30.425Z,76.00
2019-03-09T04:17:20.623Z,75.10
2019-03-09T04:19:57.604Z,75.20
2019-03-09T04:22:47.640Z,75.20
2019-03-09T04:25:23.827Z,76.00
2019-03-09T04:28:14.103Z,77.20
2019-03-09T04:30:50.287Z,78.00
2019-03-09T04:33:40.019Z,77.00
2019-03-09T04:36:17.111Z,76.40
2019-03-09T04:39:07.392Z,76.30
2019-03-09T04:41:44.184Z,76.50
2019-03-09T04:44:34.319Z,77.70
2019-03-09T04:47:18.271Z,77.40
2019-03-09T04:50:07.673Z,76.80
2019-03-09T04:52:50.925Z,76.30
2019-03-09T04:55:45.867Z,76.10
2019-03-09T04:58:41.504Z,76.20
2019-03-09T05:01:36.650Z,76.20
2019-03-09T05:04:41.878Z,76.30
2019-03-09T05:07:34.422Z,75.80
2019-03-09T05:10:23.017Z,75.90
2019-03-09T05:13:16.553Z,75.90
2019-03-09T05:15:59.714Z,75.80
2019-03-09T05:18:48.879Z,76.20
2019-03-09T05:21:25.909Z,76.50
2019-03-09T05:24:16.426Z,76.00
2019-03-09T05:26:59.845Z,76.00
2019-03-09T05:29:42.096Z,75.90
2019-03-09T05:32:32.256Z,75.60
2019-03-09T05:35:08.879Z,75.80
2019-03-09T05:37:57.749Z,76.40
2019-03-09T05:40:34.687Z,76.40
2019-03-09T05:43:25.164Z,75.70
2019-03-09T05:46:08.520Z,76.40
2019-03-09T05:48:51.442Z,76.60
2019-03-09T05:51:35.296Z,76.20
2019-03-09T05:54:18.312Z,76.20
2019-03-09T05:57:01.552Z,77.10
2019-03-09T05:59:43.939Z,77.40
2019-03-09T06:02:27.350Z,76.80
2019-03-09T06:05:10.694Z,76.60
2019-03-09T06:07:53.629Z,76.90
2019-03-09T06:10:36.119Z,77.20
2019-03-09T06:13:19.548Z,77.00
2019-03-09T06:16:08.707Z,77.70
2019-03-09T06:18:45.003Z,78.00
2019-03-09T06:21:34.191Z,77.30
2019-03-09T06:24:10.297Z,76.50
2019-03-09T06:26:59.561Z,76.20
2019-03-09T06:29:48.404Z,76.30
2019-03-09T06:32:42.808Z,75.80
2019-03-09T06:35:32.862Z,75.50
2019-03-09T06:38:28.070Z,75.70
2019-03-09T06:41:30.381Z,75.50
2019-03-09T06:44:06.833Z,75.70
2019-03-09T06:46:56.311Z,74.10
2019-03-09T06:49:33.245Z,73.60
2019-03-09T06:52:17.085Z,74.00
2019-03-09T06:55:06.397Z,73.70
2019-03-09T06:57:50.383Z,74.50
2019-03-09T07:00:38.212Z,74.10
2019-03-09T07:03:20.998Z,73.80
2019-03-09T07:06:10.779Z,73.70
2019-03-09T07:08:53.841Z,73.70
2019-03-09T07:11:38.452Z,74.80
2019-03-09T07:14:53.899Z,73.90
2019-03-09T07:17:36.730Z,73.30
2019-03-09T07:20:20.672Z,74.10
2019-03-09T07:23:09.823Z,74.60
2019-03-09T07:25:45.811Z,73.60
2019-03-09T07:28:35.206Z,72.90
2019-03-09T07:31:18.223Z,70.70
2019-03-09T07:34:29.842Z,67.10
2019-03-09T07:37:12.805Z,64.80
2019-03-09T07:40:02.572Z,64.90
2019-03-09T07:42:47.084Z,64.30
2019-03-09T07:45:30.033Z,63.30
2019-03-09T07:48:13.738Z,61.60
2019-03-09T07:51:02.901Z,61.10
2019-03-09T07:53:39.164Z,61.10
2019-03-09T07:56:29.314Z,61.20
2019-03-09T07:59:19.010Z,61.20
2019-03-09T08:01:55.372Z,59.90
2019-03-09T08:04:45.729Z,57.70
2019-03-09T08:07:22.829Z,56.50
2019-03-09T08:10:15.364Z,56.60
2019-03-09T08:12:58.870Z,59.40
2019-03-09T08:15:54.325Z,60.60
2019-03-09T08:18:45.229Z,63.20
2019-03-09T08:21:28.410Z,64.00
2019-03-09T08:24:18.658Z,64.10
2019-03-09T08:26:55.569Z,64.60
2019-03-09T08:29:51.342Z,65.30
2019-03-09T08:32:46.758Z,65.80
2019-03-09T08:35:41.897Z,66.00
2019-03-09T08:38:37.466Z,66.50
2019-03-09T08:41:32.764Z,64.70
2019-03-09T08:44:28.650Z,63.50
2019-03-09T08:47:19.532Z,63.90
2019-03-09T08:50:04.145Z,63.80
2019-03-09T08:52:53.477Z,63.30
2019-03-09T08:55:43.129Z,63.10
2019-03-09T08:58:19.434Z,62.60
2019-03-09T09:01:08.796Z,63.20
2019-03-09T09:03:45.037Z,63.40
2019-03-09T09:06:33.959Z,63.50
2019-03-09T09:09:17.309Z,63.60
2019-03-09T09:12:06.364Z,63.10
2019-03-09T09:14:50.036Z,61.90
2019-03-09T09:17:40.781Z,62.80
2019-03-09T09:20:25.143Z,62.40
2019-03-09T09:23:14.329Z,61.40
2019-03-09T09:25:50.649Z,62.00
2019-03-09T09:28:39.792Z,59.80
2019-03-09T09:31:16.253Z,58.80
2019-03-09T09:34:06.751Z,57.40
2019-03-09T09:36:42.919Z,57.60
2019-03-09T09:39:38.356Z,56.90
2019-03-09T09:42:33.809Z,58.00
2019-03-09T09:45:28.819Z,58.20
2019-03-09T09:48:18.373Z,57.90
2019-03-09T09:51:02.306Z,58.20
2019-03-09T09:53:45.489Z,58.40
2019-03-09T09:56:35.025Z,58.90
2019-03-09T09:59:14.320Z,58.40
2019-03-09T10:02:03.536Z,58.80
2019-03-09T10:04:47.390Z,59.20
2019-03-09T10:07:42.558Z,59.10
2019-03-09T10:10:31.891Z,58.40
2019-03-09T10:13:07.849Z,58.30
2019-03-09T10:15:58.082Z,58.50
2019-03-09T10:18:34.457Z,58.40
2019-03-09T10:21:24.920Z,58.00
2019-03-09T10:24:08.432Z,58.80
2019-03-09T10:27:04.831Z,57.60
2019-03-09T10:30:00.584Z,57.60
2019-03-09T10:32:56.863Z,57.00
2019-03-09T10:35:52.633Z,56.20
2019-03-09T10:38:47.757Z,56.20
2019-03-09T10:41:43.293Z,56.70
2019-03-09T10:44:32.851Z,56.30
2019-03-09T10:47:09.818Z,56.40
2019-03-09T10:49:59.188Z,54.90
2019-03-09T10:52:36.442Z,54.00
2019-03-09T10:55:31.990Z,53.50
2019-03-09T10:58:08.584Z,52.90
2019-03-09T11:00:57.863Z,52.90
2019-03-09T11:03:41.490Z,53.30
2019-03-09T11:06:36.966Z,54.10
2019-03-09T11:09:26.248Z,54.10
2019-03-09T11:12:02.721Z,52.80
2019-03-09T11:14:53.226Z,51.70
2019-03-09T11:17:29.933Z,51.60
2019-03-09T11:20:23.211Z,51.40
2019-03-09T11:23:06.468Z,51.90
2019-03-09T11:25:56.906Z,51.80
2019-03-09T11:28:33.694Z,52.10
2019-03-09T11:31:30.048Z,52.40
2019-03-09T11:34:19.713Z,52.00
2019-03-09T11:36:55.856Z,52.10
2019-03-09T11:39:47.062Z,51.20
2019-03-09T11:42:23.260Z,50.30
2019-03-09T11:45:24.351Z,51.40
2019-03-09T11:48:01.711Z,51.50
2019-03-09T11:50:51.940Z,51.80
2019-03-09T11:53:28.930Z,51.30
2019-03-09T11:56:19.503Z,50.40
2019-03-09T11:58:55.739Z,50.60
2019-03-09T12:01:45.453Z,51.00
2019-03-09T12:04:22.601Z,50.10
2019-03-09T12:07:12.924Z,50.80
2019-03-09T12:09:49.006Z,49.80
2019-03-09T12:12:39.232Z,49.70
2019-03-09T12:15:24.718Z,49.90
2019-03-09T12:18:19.610Z,50.40
2019-03-09T12:21:08.787Z,50.50
2019-03-09T12:23:52.594Z,50.80
2019-03-09T12:26:42.106Z,51.60
2019-03-09T12:29:18.035Z,51.50
2019-03-09T12:32:14.599Z,51.00
2019-03-09T12:35:11.379Z,50.80
2019-03-09T12:38:00.987Z,49.90
2019-03-09T12:40:38.357Z,50.30
2019-03-09T12:43:28.517Z,50.20
2019-03-09T12:46:04.983Z,50.10
2019-03-09T12:48:56.768Z,49.90
2019-03-09T12:51:33.616Z,49.50
2019-03-09T12:54:23.848Z,48.80
2019-03-09T12:57:00.398Z,48.30
2019-03-09T12:59:50.682Z,48.60
2019-03-09T13:02:27.232Z,48.80
2019-03-09T13:05:17.811Z,48.30
2019-03-09T13:08:00.836Z,47.40
2019-03-09T13:10:44.887Z,48.00
2019-03-09T13:13:27.638Z,47.70
2019-03-09T13:16:11.365Z,47.50
2019-03-09T13:18:54.430Z,47.70
2019-03-09T13:21:37.991Z,47.10
2019-03-09T13:24:26.989Z,46.60
2019-03-09T13:27:03.842Z,45.10
2019-03-09T13:29:53.262Z,46.60
2019-03-09T13:32:30.435Z,47.40
2019-03-09T13:35:20.585Z,47.60
2019-03-09T13:38:03.036Z,46.80
2019-03-09T13:40:51.773Z,46.00
2019-03-09T13:43:34.992Z,46.70
2019-03-09T13:46:24.383Z,46.50
2019-03-09T13:49:07.503Z,46.30
2019-03-09T13:51:56.983Z,46.40
2019-03-09T13:54:33.840Z,46.60
2019-03-09T13:57:30.060Z,47.00
2019-03-09T14:00:24.570Z,46.40
2019-03-09T14:03:03.215Z,47.20
2019-03-09T14:05:54.101Z,47.20
2019-03-09T14:08:37.756Z,46.30
2019-03-09T14:11:26.894Z,44.50
2019-03-09T14:14:02.952Z,44.10
2019-03-09T14:16:53.022Z,44.80
2019-03-09T14:19:29.973Z,44.30
2019-03-09T14:22:20.677Z,44.50
2019-03-09T14:24:56.688Z,44.80
2019-03-09T14:27:48.065Z,45.90
2019-03-09T14:30:25.665Z,46.00
2019-03-09T14:33:15.732Z,44.70
2019-03-09T14:35:52.309Z,44.50
2019-03-09T14:38:42.959Z,45.30
2019-03-09T14:41:26.644Z,45.70
2019-03-09T14:44:23.483Z,46.40
2019-03-09T14:47:19.864Z,45.20
2019-03-09T14:50:09.449Z,45.40
2019-03-09T14:52:52.933Z,44.50
2019-03-09T14:55:42.193Z,45.00
2019-03-09T14:58:18.983Z,45.30
2019-03-09T15:01:09.606Z,45.20
2019-03-09T15:03:53.289Z,45.80
2019-03-09T15:06:42.366Z,46.40
2019-03-09T15:09:25.448Z,47.10
2019-03-09T15:12:09.061Z,47.40
2019-03-09T15:14:51.749Z,46.30
2019-03-09T15:17:35.790Z,46.20
2019-03-09T15:20:20.786Z,46.80
2019-03-09T15:23:04.927Z,47.50
2019-03-09T15:25:54.643Z,46.40
2019-03-09T15:28:30.671Z,47.10
2019-03-09T15:31:20.088Z,47.20
2019-03-09T15:33:56.587Z,47.00
2019-03-09T15:36:45.939Z,47.10
2019-03-09T15:39:28.480Z,48.00
2019-03-09T15:42:18.921Z,47.70
2019-03-09T15:44:55.815Z,47.60
2019-03-09T15:47:47.435Z,47.90
2019-03-09T15:50:30.732Z,48.60
2019-03-09T15:53:13.976Z,48.60
2019-03-09T15:55:57.910Z,48.70
2019-03-09T15:58:53.634Z,49.60
2019-03-09T16:01:49.445Z,49.50
2019-03-09T16:04:44.879Z,48.90
2019-03-09T16:07:40.845Z,48.90
2019-03-09T16:10:36.423Z,48.50
2019-03-09T16:13:31.771Z,47.90
2019-03-09T16:16:21.214Z,47.80
2019-03-09T16:18:58.249Z,47.80
2019-03-09T16:21:48.279Z,48.30
2019-03-09T16:24:25.625Z,48.60
2019-03-09T16:27:14.933Z,49.00
2019-03-09T16:29:52.865Z,49.70
2019-03-09T16:32:42.933Z,49.40
2019-03-09T16:35:26.218Z,49.70
2019-03-09T16:38:22.332Z,49.70
2019-03-09T16:41:18.022Z,49.90
2019-03-09T16:44:13.288Z,50.40
2019-03-09T16:47:02.001Z,50.00
2019-03-09T16:49:39.476Z,50.20
2019-03-09T16:52:29.347Z,50.30
2019-03-09T16:55:06.304Z,50.20
2019-03-09T16:57:56.013Z,50.10
2019-03-09T17:00:32.793Z,50.00
2019-03-09T17:03:35.818Z,49.50
2019-03-09T17:06:24.969Z,49.80
2019-03-09T17:09:01.421Z,50.00
2019-03-09T17:11:51.863Z,50.00
2019-03-09T17:14:28.355Z,49.70
2019-03-09T17:17:17.479Z,49.70
2019-03-09T17:19:53.723Z,49.60
2019-03-09T17:22:44.441Z,49.60
2019-03-09T17:25:21.912Z,49.80
2019-03-09T17:28:12.935Z,50.20
2019-03-09T17:30:55.761Z,50.10
2019-03-09T17:33:45.775Z,50.20
2019-03-09T17:36:34.831Z,50.30
2019-03-09T17:39:30.395Z,50.80
2019-03-09T17:42:13.534Z,50.90
2019-03-09T17:45:03.303Z,51.30
2019-03-09T17:47:46.378Z,51.40
2019-03-09T17:50:29.297Z,51.90
2019-03-09T17:53:14.064Z,52.50
2019-03-09T17:55:57.741Z,52.60
2019-03-09T17:58:40.944Z,52.90
2019-03-09T18:01:23.953Z,53.30
2019-03-09T18:04:06.909Z,53.60
2019-03-09T18:06:50.064Z,53.40
2019-03-09T18:09:32.831Z,53.40
2019-03-09T18:12:15.930Z,53.50
2019-03-09T18:14:58.904Z,53.60
2019-03-09T18:17:40.859Z,53.50
2019-03-09T18:20:24.341Z,53.50
2019-03-09T18:23:14.331Z,53.50
2019-03-09T18:25:57.386Z,53.90
2019-03-09T18:28:39.583Z,54.00
2019-03-09T18:31:23.495Z,54.10
2019-03-09T18:34:06.876Z,54.10
2019-03-09T18:36:50.422Z,54.30
2019-03-09T18:39:45.635Z,54.10
2019-03-09T18:42:41.619Z,54.20
2019-03-09T18:45:24.755Z,54.50
2019-03-09T18:48:14.466Z,54.50
2019-03-09T18:50:50.949Z,54.60
2019-03-09T18:53:40.779Z,54.90
2019-03-09T18:56:23.747Z,55.00
2019-03-09T18:59:05.917Z,55.30
2019-03-09T19:01:48.996Z,55.10
2019-03-09T19:04:38.871Z,55.00
2019-03-09T19:07:22.186Z,55.30
2019-03-09T19:10:04.868Z,55.70
2019-03-09T19:12:48.312Z,56.00
2019-03-09T19:15:37.499Z,56.40
2019-03-09T19:18:17.881Z,56.40
2019-03-09T19:21:07.628Z,56.70
2019-03-09T19:23:51.148Z,56.20
2019-03-09T19:26:33.827Z,56.30
2019-03-09T19:29:17.952Z,56.70
2019-03-09T19:32:00.603Z,56.80
2019-03-09T19:34:44.820Z,57.30
2019-03-09T19:37:34.537Z,57.60
2019-03-09T19:40:25.737Z,57.70
2019-03-09T19:43:08.282Z,57.90
2019-03-09T19:45:52.164Z,58.30
2019-03-09T19:48:41.209Z,58.60
2019-03-09T19:51:18.073Z,58.70
2019-03-09T19:54:07.848Z,59.00
2019-03-09T19:56:57.145Z,59.10
2019-03-09T19:59:34.060Z,59.20
2019-03-09T20:02:23.777Z,59.50
2019-03-09T20:05:00.303Z,59.60
2019-03-09T20:07:50.679Z,59.60
2019-03-09T20:10:28.913Z,59.30
2019-03-09T20:13:19.305Z,59.30
2019-03-09T20:16:01.941Z,59.10
2019-03-09T20:18:57.734Z,59.10
2019-03-09T20:21:47.711Z,59.20
2019-03-09T20:24:30.950Z,59.50
2019-03-09T20:27:26.974Z,59.60
2019-03-09T20:30:27.073Z,59.80
2019-03-09T20:33:23.510Z,59.80
2019-03-09T20:36:13.883Z,59.50
2019-03-09T20:38:50.689Z,59.40
2019-03-09T20:41:47.266Z,59.00
2019-03-09T20:44:38.006Z,59.10
2019-03-09T20:47:20.441Z,59.20
2019-03-09T20:50:04.066Z,59.60
2019-03-09T20:52:46.669Z,59.70
2019-03-09T20:55:29.378Z,59.60
2019-03-09T20:58:13.467Z,59.50
2019-03-09T21:00:56.801Z,59.70
2019-03-09T21:03:46.718Z,59.90
2019-03-09T21:06:29.598Z,60.30
2019-03-09T21:09:19.647Z,61.20
2019-03-09T21:11:56.150Z,61.70
2019-03-09T21:14:46.070Z,61.20
2019-03-09T21:17:35.955Z,60.90
2019-03-09T21:20:14.961Z,61.00
2019-03-09T21:23:05.533Z,61.10
2019-03-09T21:25:42.071Z,61.20
2019-03-09T21:28:32.025Z,62.00
2019-03-09T21:31:08.464Z,62.00
2019-03-09T21:33:59.419Z,61.80
2019-03-09T21:36:36.473Z,62.20
2019-03-09T21:39:27.000Z,62.70
2019-03-09T21:42:10.409Z,62.20
2019-03-09T21:45:05.524Z,62.50
2019-03-09T21:47:54.706Z,62.40
2019-03-09T21:50:37.867Z,61.50
2019-03-09T21:53:21.608Z,61.30
2019-03-09T21:56:10.877Z,61.70
2019-03-09T21:58:53.844Z,61.40
2019-03-09T22:01:43.419Z,61.70
2019-03-09T22:04:32.792Z,61.30
2019-03-09T22:07:16.425Z,61.60
2019-03-09T22:10:11.880Z,61.60
2019-03-09T22:13:00.871Z,61.90
2019-03-09T22:15:36.876Z,62.00
2019-03-09T22:18:27.318Z,61.90
2019-03-09T22:21:10.287Z,62.90
2019-03-09T22:23:59.995Z,62.60
2019-03-09T22:26:42.697Z,62.90
2019-03-09T22:29:31.940Z,62.50
2019-03-09T22:32:08.206Z,62.70
2019-03-09T22:34:58.837Z,62.80
2019-03-09T22:37:35.312Z,62.60
2019-03-09T22:40:27.144Z,63.20
2019-03-09T22:43:03.414Z,63.30
2019-03-09T22:45:53.881Z,64.10
2019-03-09T22:48:30.976Z,64.30
2019-03-09T22:51:21.580Z,64.80
2019-03-09T22:53:58.655Z,64.80
2019-03-09T22:56:48.723Z,65.00
2019-03-09T22:59:25.167Z,65.10
2019-03-09T23:02:08.796Z,65.10
2019-03-09T23:04:51.754Z,65.80
2019-03-09T23:07:34.753Z,66.80
2019-03-09T23:10:35.286Z,66.70
2019-03-09T23:13:30.218Z,66.50
2019-03-09T23:16:26.849Z,66.70
2019-03-09T23:19:22.107Z,66.40
2019-03-09T23:22:17.327Z,66.60
2019-03-09T23:25:12.146Z,67.10
2019-03-09T23:28:07.801Z,67.40
2019-03-09T23:31:02.548Z,67.60
2019-03-09T23:33:51.708Z,68.00
2019-03-09T23:36:28.482Z,68.50
2019-03-09T23:39:18.713Z,68.60
2019-03-09T23:41:55.701Z,68.70
2019-03-09T23:44:45.449Z,68.50
2019-03-09T23:47:21.861Z,68.30
2019-03-09T23:50:14.206Z,67.90
2019-03-09T23:52:50.872Z,68.40
2019-03-09T23:55:42.452Z,68.90
2019-03-09T23:58:25.590Z,69.10
